createdAt,value
2022-11-28T00:01:21.248Z,97.03
2022-11-28T00:03:52.642Z,95.90
2022-11-28T00:06:22.362Z,76.77
2022-11-28T00:08:50.532Z,77.30
2022-11-28T00:11:19.271Z,186.07
2022-11-28T00:13:47.691Z,145.13
2022-11-28T00:16:18.369Z,334.37
2022-11-28T00:18:46.451Z,94.83
2022-11-28T00:21:15.995Z,127.50
2022-11-28T00:23:46.835Z,92.03
2022-11-28T00:26:16.522Z,130.07
2022-11-28T00:28:44.682Z,96.60
2022-11-28T00:31:14.907Z,92.00
2022-11-28T00:33:43.058Z,105.00
2022-11-28T00:36:11.974Z,103.90
2022-11-28T00:38:39.854Z,108.93
2022-11-28T00:41:11.139Z,91.67
2022-11-28T00:43:39.369Z,97.83
2022-11-28T00:46:07.546Z,96.47
2022-11-28T00:48:35.888Z,109.03
2022-11-28T00:51:08.163Z,105.37
2022-11-28T00:53:36.342Z,106.27
2022-11-28T00:56:05.901Z,102.00
2022-11-28T00:58:36.080Z,92.03
2022-11-28T01:01:09.187Z,98.43
2022-11-28T01:03:37.112Z,111.27
2022-11-28T01:06:05.605Z,113.87
2022-11-28T01:08:33.753Z,105.40
2022-11-28T01:11:01.825Z,110.63
2022-11-28T01:13:29.917Z,112.47
2022-11-28T01:15:59.699Z,99.23
2022-11-28T01:18:27.621Z,96.87
2022-11-28T01:20:55.519Z,94.00
2022-11-28T01:23:23.401Z,92.70
2022-11-28T01:25:51.457Z,86.47
2022-11-28T01:28:19.367Z,99.20
2022-11-28T01:30:47.277Z,91.77
2022-11-28T01:33:16.657Z,82.20
2022-11-28T01:35:54.415Z,80.03
2022-11-28T01:38:22.633Z,84.60
2022-11-28T01:40:51.084Z,84.77
2022-11-28T01:43:19.506Z,80.20
2022-11-28T01:45:47.681Z,84.93
2022-11-28T01:48:21.700Z,75.80
2022-11-28T01:50:51.028Z,80.50
2022-11-28T01:53:19.074Z,74.37
2022-11-28T01:55:53.936Z,85.30
2022-11-28T01:58:22.022Z,85.23
2022-11-28T02:00:50.491Z,92.57
2022-11-28T02:03:24.050Z,101.77
2022-11-28T02:05:52.738Z,94.00
2022-11-28T02:08:20.730Z,91.70
2022-11-28T02:11:04.201Z,79.17
2022-11-28T02:13:44.757Z,73.40
2022-11-28T02:16:38.994Z,82.80
2022-11-28T02:19:34.472Z,84.23
2022-11-28T02:22:07.446Z,81.43
2022-11-28T02:25:13.777Z,82.23
2022-11-28T02:28:07.766Z,78.17
2022-11-28T02:30:48.077Z,96.17
2022-11-28T02:33:21.978Z,81.00
2022-11-28T02:36:00.197Z,82.63
2022-11-28T02:38:40.121Z,80.37
2022-11-28T02:41:16.011Z,92.27
2022-11-28T02:43:52.065Z,82.30
2022-11-28T02:46:27.861Z,87.50
2022-11-28T02:49:01.033Z,89.97
2022-11-28T02:51:34.642Z,81.97
2022-11-28T02:54:04.749Z,93.93
2022-11-28T02:56:32.652Z,96.30
2022-11-28T02:59:00.540Z,88.77
2022-11-28T03:01:32.747Z,87.77
2022-11-28T03:04:13.785Z,95.30
2022-11-28T03:06:50.149Z,91.43
2022-11-28T03:09:36.203Z,87.40
2022-11-28T03:12:13.369Z,98.23
2022-11-28T03:14:50.977Z,111.60
2022-11-28T03:17:34.877Z,110.57
2022-11-28T03:20:16.013Z,113.73
2022-11-28T03:22:56.330Z,115.83
2022-11-28T03:25:29.603Z,112.60
2022-11-28T03:28:03.253Z,109.07
2022-11-28T03:30:37.592Z,99.60
2022-11-28T03:33:06.487Z,103.87
2022-11-28T03:35:40.441Z,105.27
2022-11-28T03:38:12.252Z,107.37
2022-11-28T03:40:43.671Z,98.47
2022-11-28T03:43:17.032Z,103.67
2022-11-28T03:45:48.212Z,96.17
2022-11-28T03:48:21.684Z,101.10
2022-11-28T03:50:56.700Z,95.70
2022-11-28T03:53:36.133Z,114.63
2022-11-28T03:56:10.323Z,116.80
2022-11-28T03:58:44.778Z,108.30
2022-11-28T04:01:20.673Z,114.03
2022-11-28T04:03:55.812Z,116.43
2022-11-28T04:06:29.433Z,107.37
2022-11-28T04:09:02.344Z,112.47
2022-11-28T04:11:34.844Z,101.83
2022-11-28T04:14:10.687Z,82.50
2022-11-28T04:16:47.232Z,94.93
2022-11-28T04:19:29.271Z,81.20
2022-11-28T04:22:02.975Z,90.93
2022-11-28T04:24:38.119Z,82.27
2022-11-28T04:27:09.623Z,95.10
2022-11-28T04:29:43.047Z,92.93
2022-11-28T04:32:12.587Z,97.70
2022-11-28T04:34:43.548Z,109.50
2022-11-28T04:37:15.287Z,112.77
2022-11-28T04:39:45.613Z,107.33
2022-11-28T04:42:18.114Z,108.37
2022-11-28T04:44:51.741Z,103.73
2022-11-28T04:47:20.407Z,105.17
2022-11-28T04:49:48.336Z,99.83
2022-11-28T04:52:21.915Z,95.43
2022-11-28T04:54:56.587Z,93.40
2022-11-28T04:57:31.180Z,97.50
2022-11-28T04:59:59.799Z,91.47
2022-11-28T05:02:29.667Z,87.10
2022-11-28T05:04:58.311Z,80.10
2022-11-28T05:07:27.665Z,76.83
2022-11-28T05:09:57.686Z,90.43
2022-11-28T05:12:25.611Z,89.13
2022-11-28T05:14:53.493Z,81.20
2022-11-28T05:17:21.397Z,73.43
2022-11-28T05:19:49.283Z,102.33
2022-11-28T05:22:17.257Z,91.83
2022-11-28T05:24:46.705Z,68.23
2022-11-28T05:27:14.774Z,68.27
2022-11-28T05:29:49.426Z,60.60
2022-11-28T05:32:19.944Z,67.67
2022-11-28T05:34:47.827Z,56.30
2022-11-28T05:37:16.730Z,68.37
2022-11-28T05:39:46.016Z,72.23
2022-11-28T05:42:13.924Z,67.57
2022-11-28T05:44:41.806Z,53.33
2022-11-28T05:47:09.770Z,82.03
2022-11-28T05:49:37.700Z,64.57
2022-11-28T05:52:05.684Z,86.53
2022-11-28T05:54:33.598Z,61.60
2022-11-28T05:57:02.970Z,85.13
2022-11-28T05:59:30.858Z,69.13
2022-11-28T06:01:58.872Z,63.23
2022-11-28T06:04:26.887Z,67.63
2022-11-28T06:06:54.825Z,56.10
2022-11-28T06:09:25.807Z,60.43
2022-11-28T06:11:54.354Z,63.30
2022-11-28T06:14:23.633Z,66.63
2022-11-28T06:16:51.585Z,53.53
2022-11-28T06:19:19.670Z,45.23
2022-11-28T06:21:50.151Z,48.83
2022-11-28T06:24:18.289Z,66.10
2022-11-28T06:26:46.569Z,60.00
2022-11-28T06:29:14.517Z,51.30
2022-11-28T06:31:43.834Z,54.60
2022-11-28T06:34:12.800Z,49.87
2022-11-28T06:36:40.781Z,66.57
2022-11-28T06:39:08.712Z,63.60
2022-11-28T06:41:36.624Z,81.20
2022-11-28T06:44:04.781Z,60.30
2022-11-28T06:46:32.736Z,62.97
2022-11-28T06:49:02.016Z,67.97
2022-11-28T06:51:29.933Z,50.00
2022-11-28T06:53:58.017Z,81.63
2022-11-28T06:56:26.003Z,52.93
2022-11-28T06:58:58.107Z,56.33
2022-11-28T07:01:27.737Z,66.47
2022-11-28T07:03:55.919Z,69.77
2022-11-28T07:06:26.864Z,50.50
2022-11-28T07:08:56.133Z,71.30
2022-11-28T07:11:25.692Z,60.63
2022-11-28T07:13:54.877Z,52.50
2022-11-28T07:16:24.320Z,57.57
2022-11-28T07:18:52.949Z,58.10
2022-11-28T07:21:21.542Z,59.97
2022-11-28T07:23:51.132Z,52.40
2022-11-28T07:26:23.683Z,39.97
2022-11-28T07:28:52.758Z,51.93
2022-11-28T07:31:22.392Z,45.40
2022-11-28T07:33:52.060Z,42.27
2022-11-28T07:36:22.404Z,46.33
2022-11-28T07:38:53.203Z,42.90
2022-11-28T07:41:26.199Z,50.90
2022-11-28T07:43:56.297Z,46.80
2022-11-28T07:46:24.548Z,43.93
2022-11-28T07:48:53.087Z,50.57
2022-11-28T07:51:22.829Z,45.63
2022-11-28T07:53:52.608Z,41.97
2022-11-28T07:56:25.616Z,41.93
2022-11-28T07:58:53.735Z,44.37
2022-11-28T08:01:23.392Z,42.00
2022-11-28T08:03:52.069Z,38.23
2022-11-28T08:06:22.491Z,34.33
2022-11-28T08:08:52.691Z,39.00
2022-11-28T08:11:22.679Z,38.07
2022-11-28T08:13:51.859Z,30.37
2022-11-28T08:16:23.543Z,35.47
2022-11-28T08:18:53.060Z,36.80
2022-11-28T08:21:23.363Z,34.23
2022-11-28T08:23:53.552Z,35.20
2022-11-28T08:26:28.792Z,34.20
2022-11-28T08:28:58.750Z,33.33
2022-11-28T08:31:29.917Z,33.43
2022-11-28T08:33:59.797Z,35.27
2022-11-28T08:36:29.351Z,37.50
2022-11-28T08:39:30.366Z,34.33
2022-11-28T08:41:48.417Z,36.37
2022-11-28T08:44:16.436Z,40.03
2022-11-28T08:46:44.356Z,34.30
2022-11-28T08:49:12.258Z,33.83
2022-11-28T08:51:40.136Z,33.30
2022-11-28T08:54:09.556Z,33.10
2022-11-28T08:56:37.440Z,32.53
2022-11-28T08:59:07.098Z,31.70
2022-11-28T09:01:35.061Z,34.27
2022-11-28T09:04:03.114Z,33.40
2022-11-28T09:06:31.062Z,32.47
2022-11-28T09:08:59.315Z,38.27
2022-11-28T09:11:28.549Z,35.37
2022-11-28T09:13:56.764Z,37.03
2022-11-28T09:16:24.686Z,34.63
2022-11-28T09:18:52.715Z,35.80
2022-11-28T09:21:20.655Z,39.40
2022-11-28T09:23:48.563Z,37.47
2022-11-28T09:26:18.106Z,41.87
2022-11-28T09:28:48.426Z,44.53
2022-11-28T09:31:18.609Z,41.77
2022-11-28T09:33:48.308Z,43.03
2022-11-28T09:36:18.759Z,42.60
2022-11-28T09:38:46.997Z,45.63
2022-11-28T09:41:45.730Z,46.87
2022-11-28T09:44:22.927Z,45.63
2022-11-28T09:46:53.721Z,45.10
2022-11-28T09:49:36.771Z,45.67
2022-11-28T09:52:22.441Z,50.50
2022-11-28T09:54:57.917Z,52.47
2022-11-28T09:57:33.879Z,47.63
2022-11-28T10:00:03.788Z,47.30
2022-11-28T10:02:39.244Z,45.93
2022-11-28T10:05:16.101Z,42.83
2022-11-28T10:07:55.283Z,47.50
2022-11-28T10:10:30.123Z,48.27
2022-11-28T10:13:04.333Z,49.53
2022-11-28T10:15:43.820Z,43.73
2022-11-28T10:18:27.883Z,47.13
2022-11-28T10:21:00.235Z,52.33
2022-11-28T10:23:30.851Z,48.97
2022-11-28T10:26:02.703Z,50.23
2022-11-28T10:28:35.232Z,46.13
2022-11-28T10:31:09.051Z,46.10
2022-11-28T10:33:43.230Z,44.77
2022-11-28T10:36:17.476Z,42.17
2022-11-28T10:38:45.368Z,38.33
2022-11-28T10:41:18.314Z,43.27
2022-11-28T10:43:50.495Z,39.10
2022-11-28T10:46:40.811Z,42.10
2022-11-28T10:49:25.536Z,41.80
2022-11-28T10:52:02.573Z,37.80
2022-11-28T10:54:46.645Z,36.40
2022-11-28T10:57:22.168Z,38.40
2022-11-28T11:00:02.603Z,35.77
2022-11-28T11:02:38.294Z,34.90
2022-11-28T11:05:08.000Z,39.13
2022-11-28T11:07:36.018Z,35.10
2022-11-28T11:10:15.515Z,40.97
2022-11-28T11:12:44.145Z,35.10
2022-11-28T11:15:25.542Z,33.00
2022-11-28T11:17:54.798Z,31.83
2022-11-28T11:20:38.003Z,31.73
2022-11-28T11:23:16.464Z,37.97
2022-11-28T11:25:50.941Z,35.17
2022-11-28T11:28:42.624Z,29.23
2022-11-28T11:31:26.227Z,30.20
2022-11-28T11:34:15.865Z,28.77
2022-11-28T11:36:43.890Z,29.33
2022-11-28T11:39:23.680Z,26.30
2022-11-28T11:42:10.206Z,25.90
2022-11-28T11:44:38.430Z,27.93
2022-11-28T11:47:07.934Z,27.10
2022-11-28T11:49:39.029Z,32.03
2022-11-28T11:52:15.039Z,31.33
2022-11-28T11:54:56.334Z,29.57
2022-11-28T11:57:34.745Z,28.43
2022-11-28T12:00:07.992Z,28.13
2022-11-28T12:02:40.935Z,24.47
2022-11-28T12:05:14.955Z,24.47
2022-11-28T12:07:51.224Z,23.30
2022-11-28T12:10:23.347Z,24.50
2022-11-28T12:12:51.597Z,25.83
2022-11-28T12:15:26.931Z,24.33
2022-11-28T12:18:14.133Z,26.27
2022-11-28T12:20:55.529Z,22.40
2022-11-28T12:23:59.239Z,25.10
2022-11-28T12:26:34.733Z,24.47
2022-11-28T12:31:54.654Z,24.37
2022-11-28T12:34:33.531Z,26.23
2022-11-28T12:37:10.870Z,21.73
2022-11-28T12:39:50.198Z,25.50
2022-11-28T12:42:30.514Z,28.27
2022-11-28T12:45:20.693Z,22.97
2022-11-28T12:47:56.461Z,23.10
2022-11-28T12:50:33.029Z,26.87
2022-11-28T12:53:22.564Z,27.70
2022-11-28T12:55:59.934Z,25.30
2022-11-28T12:58:31.799Z,25.83
2022-11-28T13:01:08.242Z,29.67
2022-11-28T13:03:43.675Z,29.10
2022-11-28T13:06:23.809Z,26.73
2022-11-28T13:09:09.797Z,23.43
2022-11-28T13:11:48.261Z,25.87
2022-11-28T13:14:25.313Z,23.97
2022-11-28T13:16:57.605Z,23.27
2022-11-28T13:19:39.054Z,25.23
2022-11-28T13:22:15.102Z,24.40
2022-11-28T13:24:54.001Z,23.70
2022-11-28T13:27:32.556Z,24.50
2022-11-28T13:30:13.277Z,25.67
2022-11-28T13:32:46.541Z,25.47
2022-11-28T13:35:16.470Z,22.80
2022-11-28T13:40:44.835Z,25.97
2022-11-28T13:43:18.122Z,27.57
2022-11-28T13:51:41.620Z,25.87
2022-11-28T13:54:37.188Z,22.73
2022-11-28T13:57:18.994Z,25.73
2022-11-28T13:59:53.488Z,25.77
2022-11-28T14:02:27.322Z,25.70
2022-11-28T14:04:55.420Z,24.10
2022-11-28T14:07:32.895Z,26.33
2022-11-28T14:10:15.577Z,22.80
2022-11-28T14:12:53.480Z,24.00
2022-11-28T14:15:29.600Z,22.00
2022-11-28T14:18:39.104Z,24.77
2022-11-28T14:21:05.555Z,30.90
2022-11-28T14:23:42.003Z,31.57
2022-11-28T14:26:15.601Z,28.40
2022-11-28T14:28:46.261Z,29.53
2022-11-28T14:31:26.348Z,28.27
2022-11-28T14:33:59.373Z,30.77
2022-11-28T14:36:29.681Z,31.83
2022-11-28T14:39:12.118Z,22.47
2022-11-28T14:42:51.813Z,26.23
2022-11-28T14:45:41.848Z,30.73
2022-11-28T14:48:29.318Z,26.17
2022-11-28T14:51:01.818Z,29.07
2022-11-28T14:53:45.399Z,28.97
2022-11-28T14:56:26.660Z,26.63
2022-11-28T14:58:58.933Z,26.70
2022-11-28T15:01:44.888Z,30.07
2022-11-28T15:04:37.406Z,28.77
2022-11-28T15:07:12.000Z,31.70
2022-11-28T15:09:46.748Z,28.60
2022-11-28T15:12:24.516Z,31.17
2022-11-28T15:14:58.974Z,33.80
2022-11-28T15:17:30.859Z,31.23
2022-11-28T15:20:00.220Z,36.83
2022-11-28T15:22:33.188Z,34.53
2022-11-28T15:25:01.122Z,34.00
2022-11-28T15:27:29.343Z,28.77
2022-11-28T15:29:59.137Z,26.83
2022-11-28T15:32:30.871Z,28.27
2022-11-28T15:35:01.712Z,26.30
2022-11-28T15:37:31.947Z,33.33
2022-11-28T15:40:01.721Z,28.73
2022-11-28T15:42:31.704Z,26.70
2022-11-28T15:45:01.300Z,27.77
2022-11-28T15:47:31.028Z,28.30
2022-11-28T15:50:05.513Z,26.43
2022-11-28T15:52:33.537Z,22.87
2022-11-28T15:55:01.674Z,27.53
2022-11-28T15:57:32.530Z,28.50
2022-11-28T16:00:02.986Z,26.63
2022-11-28T16:02:35.613Z,25.47
2022-11-28T16:05:08.812Z,31.20
2022-11-28T16:07:40.973Z,30.67
2022-11-28T16:10:22.061Z,31.50
2022-11-28T16:12:50.585Z,29.27
2022-11-28T16:15:20.069Z,30.30
2022-11-28T16:17:49.810Z,27.93
2022-11-28T16:20:24.023Z,30.23
2022-11-28T16:22:57.182Z,28.23
2022-11-28T16:25:26.810Z,32.37
2022-11-28T16:27:57.371Z,33.20
2022-11-28T16:30:34.659Z,29.87
2022-11-28T16:33:25.097Z,31.13
2022-11-28T16:35:53.125Z,32.20
2022-11-28T16:38:24.289Z,29.00
2022-11-28T16:40:53.079Z,33.93
2022-11-28T16:43:25.097Z,35.30
2022-11-28T16:46:00.043Z,30.40
2022-11-28T16:48:31.941Z,35.20
2022-11-28T16:51:32.636Z,39.83
2022-11-28T16:54:01.683Z,27.50
2022-11-28T16:56:44.923Z,35.50
2022-11-28T16:59:14.790Z,33.17
2022-11-28T17:01:43.998Z,30.27
2022-11-28T17:04:22.414Z,37.07
2022-11-28T17:06:50.946Z,36.10
2022-11-28T17:09:19.123Z,37.77
2022-11-28T17:11:51.729Z,36.30
2022-11-28T17:14:19.622Z,37.00
2022-11-28T17:16:47.599Z,37.37
2022-11-28T17:19:15.631Z,34.10
2022-11-28T17:21:47.835Z,33.17
2022-11-28T17:24:19.038Z,40.90
2022-11-28T17:26:47.255Z,32.97
2022-11-28T17:29:17.020Z,38.53
2022-11-28T17:31:46.823Z,34.80
2022-11-28T17:34:16.945Z,37.73
2022-11-28T17:36:46.477Z,37.10
2022-11-28T17:39:14.737Z,39.90
2022-11-28T17:41:43.288Z,40.67
2022-11-28T17:44:17.667Z,38.87
2022-11-28T17:46:45.621Z,35.83
2022-11-28T17:49:14.041Z,38.67
2022-11-28T17:51:42.217Z,39.77
2022-11-28T17:54:16.226Z,38.13
2022-11-28T17:56:44.347Z,41.77
2022-11-28T17:59:13.187Z,40.93
2022-11-28T18:01:41.152Z,42.17
2022-11-28T18:04:09.611Z,47.80
2022-11-28T18:06:37.854Z,38.63
2022-11-28T18:09:11.888Z,47.30
2022-11-28T18:11:41.642Z,41.60
2022-11-28T18:14:09.596Z,42.13
2022-11-28T18:16:39.651Z,45.47
2022-11-28T18:19:07.646Z,40.50
2022-11-28T18:21:35.582Z,47.70
2022-11-28T18:24:04.657Z,49.03
2022-11-28T18:26:32.620Z,44.63
2022-11-28T18:29:01.920Z,48.97
2022-11-28T18:31:30.859Z,44.23
2022-11-28T18:34:03.137Z,40.27
2022-11-28T18:36:33.463Z,44.53
2022-11-28T18:39:03.991Z,41.80
2022-11-28T18:41:32.486Z,43.03
2022-11-28T18:44:03.425Z,42.50
2022-11-28T18:46:32.360Z,45.37
2022-11-28T18:49:00.364Z,40.10
2022-11-28T18:51:30.129Z,46.50
2022-11-28T18:53:58.633Z,39.13
2022-11-28T18:56:29.321Z,39.33
2022-11-28T18:58:58.536Z,37.90
2022-11-28T19:01:30.435Z,38.37
2022-11-28T19:04:00.800Z,39.63
2022-11-28T19:06:29.384Z,41.83
2022-11-28T19:08:59.535Z,33.97
2022-11-28T19:11:28.621Z,37.13
2022-11-28T19:13:57.032Z,44.23
2022-11-28T19:16:27.957Z,40.97
2022-11-28T19:18:56.298Z,40.87
2022-11-28T19:21:25.655Z,32.63
2022-11-28T19:23:55.063Z,34.90
2022-11-28T19:26:24.607Z,43.90
2022-11-28T19:28:53.015Z,36.47
2022-11-28T19:31:22.886Z,35.00
2022-11-28T19:34:01.176Z,33.60
2022-11-28T19:36:29.951Z,31.60
2022-11-28T19:38:58.406Z,32.93
2022-11-28T19:41:26.595Z,35.70
2022-11-28T19:43:54.500Z,39.00
2022-11-28T19:46:22.415Z,34.77
2022-11-28T19:48:51.701Z,34.90
2022-11-28T19:51:21.219Z,35.63
2022-11-28T19:53:49.163Z,33.57
2022-11-28T19:56:19.253Z,39.80
2022-11-28T19:58:47.580Z,34.87
2022-11-28T20:01:17.504Z,34.93
2022-11-28T20:03:47.620Z,32.93
2022-11-28T20:06:18.115Z,37.30
2022-11-28T20:08:47.899Z,34.07
2022-11-28T20:11:17.560Z,32.87
2022-11-28T20:13:46.503Z,29.67
2022-11-28T20:16:16.573Z,36.83
2022-11-28T20:18:45.351Z,36.57
2022-11-28T20:21:15.494Z,36.27
2022-11-28T20:23:45.146Z,38.20
2022-11-28T20:26:15.770Z,35.77
2022-11-28T20:28:44.659Z,32.07
2022-11-28T20:31:19.712Z,36.40
2022-11-28T20:33:48.450Z,36.97
2022-11-28T20:36:18.221Z,37.37
2022-11-28T20:38:46.482Z,37.53
2022-11-28T20:41:17.130Z,42.13
2022-11-28T20:43:45.463Z,36.63
2022-11-28T20:46:15.728Z,37.37
2022-11-28T20:48:43.830Z,29.60
2022-11-28T20:51:13.742Z,39.10
2022-11-28T20:53:41.982Z,30.67
2022-11-28T20:56:13.444Z,31.67
2022-11-28T20:58:43.242Z,36.43
2022-11-28T21:01:15.322Z,33.63
2022-11-28T21:03:43.558Z,37.13
2022-11-28T21:06:11.767Z,40.47
2022-11-28T21:08:40.418Z,31.57
2022-11-28T21:11:09.946Z,35.37
2022-11-28T21:13:37.878Z,36.63
2022-11-28T21:16:08.750Z,39.20
2022-11-28T21:18:37.977Z,35.53
2022-11-28T21:21:08.973Z,34.53
2022-11-28T21:23:37.226Z,30.30
2022-11-28T21:26:07.006Z,33.83
2022-11-28T21:28:37.117Z,33.27
2022-11-28T21:31:08.233Z,53.03
2022-11-28T21:33:36.386Z,38.53
2022-11-28T21:36:05.905Z,35.33
2022-11-28T21:38:34.321Z,46.73
2022-11-28T21:41:02.664Z,37.67
2022-11-28T21:43:30.697Z,43.07
2022-11-28T21:46:03.143Z,37.80
2022-11-28T21:48:33.673Z,40.63
2022-11-28T21:51:02.530Z,32.60
2022-11-28T21:53:30.973Z,34.70
2022-11-28T21:56:01.197Z,40.77
2022-11-28T21:58:30.661Z,41.77
2022-11-28T22:00:59.500Z,38.57
2022-11-28T22:03:28.365Z,39.13
2022-11-28T22:06:02.652Z,36.33
2022-11-28T22:08:31.205Z,31.03
2022-11-28T22:11:01.099Z,36.23
2022-11-28T22:13:29.367Z,34.60
2022-11-28T22:15:57.334Z,32.70
2022-11-28T22:18:25.368Z,35.93
2022-11-28T22:20:53.371Z,36.90
2022-11-28T22:23:22.616Z,36.13
2022-11-28T22:25:53.617Z,37.73
2022-11-28T22:28:21.816Z,38.33
2022-11-28T22:30:49.740Z,36.13
2022-11-28T22:33:18.468Z,30.90
2022-11-28T22:35:46.528Z,35.57
2022-11-28T22:38:14.720Z,31.73
2022-11-28T22:40:44.007Z,33.50
2022-11-28T22:43:12.308Z,33.10
2022-11-28T22:45:40.275Z,33.03
2022-11-28T22:48:08.301Z,32.77
2022-11-28T22:50:40.238Z,33.53
2022-11-28T22:53:08.285Z,34.30
2022-11-28T22:55:36.493Z,34.47
2022-11-28T22:58:05.824Z,32.43
2022-11-28T23:00:33.735Z,36.27
2022-11-28T23:03:01.838Z,35.50
2022-11-28T23:05:29.841Z,37.83
2022-11-28T23:07:57.824Z,31.63
2022-11-28T23:10:25.798Z,35.73
2022-11-28T23:12:53.862Z,32.97
2022-11-28T23:15:23.296Z,36.20
2022-11-28T23:17:51.302Z,35.97
2022-11-28T23:20:19.315Z,33.67
2022-11-28T23:22:47.246Z,30.83
2022-11-28T23:25:15.369Z,35.20
2022-11-28T23:27:43.304Z,37.80
2022-11-28T23:30:11.819Z,32.07
2022-11-28T23:32:41.071Z,31.00
2022-11-28T23:35:09.582Z,35.63
2022-11-28T23:37:39.407Z,31.90
2022-11-28T23:40:08.649Z,35.07
2022-11-28T23:42:36.562Z,35.33
2022-11-28T23:45:04.959Z,35.33
2022-11-28T23:47:32.838Z,31.97
2022-11-28T23:50:02.062Z,30.00
2022-11-28T23:52:29.940Z,32.77
2022-11-28T23:54:57.818Z,31.17
2022-11-28T23:57:25.703Z,36.73
2022-11-28T23:59:53.587Z,35.60
